Flight Track Log - Related Links

Times and Time Zones

All times are in EDT time to prevent confusion due to time zone crossing. See the AWE1940 flight status page for this flight to view local times or setup timezone preferences in your user account.

Time Position Orientation Groundspeed Altitude Reporting Facility
EDT Latitude Longitude Course Direction KTS MPH feet Rate Location/Type
Fri 11:10:51 PM 35.1914 -80.9533 North 172 198 1,500  Level Atlanta Center
Fri 11:12:10 PM 35.1186 -80.9664 188° South 241 277 3,900 2,000 Climbing Atlanta Center
Fri 11:13:00 PM 35.5243 -80.9000 North  Level FlightAware Approximate
Fri 11:13:33 PM 35.1581 -81.0461 301° West 241 277 6,900  Level Atlanta Center
Fri 11:14:00 PM 35.6452 -80.8843 North  Level FlightAware Approximate
Fri 11:14:33 PM 35.2261 -81.0919 331° Northwest 263 303 9,800  Level Atlanta Center
Fri 11:15:00 PM 35.7660 -80.8646 North  Level FlightAware Approximate
Fri 11:15:33 PM 35.3092 -81.0789 North 279 321 11,400  Level Atlanta Center
Fri 11:16:00 PM 35.8879 -80.8570 North  Level FlightAware Approximate
Fri 11:16:33 PM 35.4083 -81.0422 17° North 343 395 13,300  Level Atlanta Center
Fri 11:17:33 PM 35.5122 -81.0181 11° North 370 426 15,900 2,300 Climbing Atlanta Center
Fri 11:18:33 PM 35.6200 -80.9908 12° North 385 443 17,900 2,700 Climbing Atlanta Center
Fri 11:19:33 PM 35.7256 -80.9639 12° North 391 450 21,300 2,250 Climbing Atlanta Center
Fri 11:20:33 PM 35.8375 -80.9367 11° North 396 456 22,400 850 Climbing Atlanta Center
Fri 11:21:33 PM 35.9558 -80.9067 12° North 419 482 23,000 1,050 Climbing Atlanta Center
Fri 11:22:33 PM 36.0842 -80.8758 11° North 459 528 24,500 1,300 Climbing Atlanta Center
Fri 11:23:33 PM 36.1983 -80.8458 12° North 465 535 25,600 1,350 Climbing Atlanta Center
Fri 11:24:33 PM 36.3308 -80.8122 12° North 477 549 27,200 1,200 Climbing Atlanta Center
Fri 11:25:33 PM 36.4583 -80.7475 22° Northeast 477 549 28,000 1,100 Climbing Atlanta Center
Fri 11:26:33 PM 36.5856 -80.6725 25° Northeast 490 564 29,400 1,000 Climbing Atlanta Center
Fri 11:28:33 PM 36.8431 -80.5233 25° Northeast 482 555 31,000 536 Climbing Washington Center
Fri 11:29:32 PM 36.9714 -80.4508 24° Northeast 489 563 31,000 353 Level Washington Center
Fri 11:30:32 PM 37.0972 -80.3781 25° Northeast 496 571 31,700 843 Climbing Washington Center
Fri 11:31:33 PM 37.2256 -80.3025 25° Northeast 496 571 32,700 655 Climbing Washington Center
Fri 11:32:31 PM 37.3428 -80.2342 25° Northeast 496 571 33,000 153 Climbing Washington Center
Fri 11:33:31 PM 37.4708 -80.1608 24° Northeast 496 571 33,000  Level Washington Center
Fri 11:34:32 PM 37.5989 -80.0844 25° Northeast 496 571 33,000  Level Washington Center
Fri 11:35:32 PM 37.7269 -80.0081 25° Northeast 496 571 33,000  Level Washington Center
Fri 11:36:33 PM 37.8719 -79.9219 25° Northeast 496 571 33,000  Level Washington Center
Fri 11:37:31 PM 38.0000 -79.8422 26° Northeast 505 581 33,000  Level Washington Center
Fri 11:38:31 PM 38.1300 -79.7653 25° Northeast 505 581 33,000  Level Washington Center
Fri 11:39:32 PM 38.2578 -79.6878 25° Northeast 505 581 33,000  Level Washington Center
Fri 11:40:32 PM 38.3897 -79.6078 25° Northeast 505 581 33,000  Level Washington Center
Fri 11:41:33 PM 38.5025 -79.5394 25° Northeast 512 589 33,000  Level Washington Center
Fri 11:42:31 PM 38.6344 -79.4589 25° Northeast 512 589 33,000  Level Washington Center
Fri 11:43:31 PM 38.7642 -79.3778 26° Northeast 512 589 33,000  Level Washington Center
Fri 11:44:32 PM 38.9047 -79.2836 28° Northeast 512 589 33,000  Level Washington Center
Fri 11:47:56 PM 39.3539 -79.0047 26° Northeast 508 585 33,000  Level Cleveland Center
Fri 11:48:56 PM 39.4861 -78.9236 25° Northeast 514 592 33,000  Level Cleveland Center
Fri 11:49:56 PM 39.6139 -78.8422 26° Northeast 520 598 33,000  Level Cleveland Center
Fri 11:50:56 PM 39.7481 -78.7578 26° Northeast 520 598 33,000  Level Cleveland Center
Fri 11:51:56 PM 39.8636 -78.6792 28° Northeast 520 598 33,000  Level Cleveland Center
Fri 11:52:57 PM 39.9956 -78.5939 26° Northeast 515 593 33,000  Level Cleveland Center
Fri 11:53:56 PM 40.1275 -78.5114 26° Northeast 520 598 33,000  Level Cleveland Center
Fri 11:54:56 PM 40.2594 -78.4256 26° Northeast 520 598 33,000  Level Cleveland Center
Fri 11:55:56 PM 40.3931 -78.3367 27° Northeast 520 598 33,000  Level Cleveland Center
Fri 11:57:25 PM 40.5967 -78.2033 26° Northeast 550 633 33,000  Level New York Center
Fri 11:58:26 PM 40.7294 -78.1136 27° Northeast 542 624 33,000  Level New York Center
Fri 11:59:26 PM 40.8503 -78.0114 33° Northeast 531 611 33,000  Level New York Center
Sat 12:00:25 AM 40.9453 -77.8564 51° Northeast 515 593 33,000  Level New York Center
Sat 12:01:24 AM 41.0400 -77.7011 51° Northeast 530 610 33,000  Level New York Center
Sat 12:02:26 AM 41.1300 -77.5478 52° Northeast 535 616 33,000  Level New York Center
Sat 12:03:26 AM 41.2150 -77.4072 51° Northeast 541 623 33,000  Level New York Center
Sat 12:04:24 AM 41.3067 -77.2561 51° Northeast 535 616 33,000  Level New York Center
Sat 12:05:24 AM 41.3986 -77.0989 52° Northeast 535 616 33,000  Level New York Center
Sat 12:06:25 AM 41.4994 -76.9256 52° Northeast 535 616 33,000  Level New York Center
Sat 12:07:25 AM 41.5906 -76.7731 51° Northeast 535 616 33,000  Level New York Center
Sat 12:08:25 AM 41.6722 -76.6361 51° Northeast 530 610 33,000 -400 Level New York Center
Sat 12:09:25 AM 41.7725 -76.4611 52° Northeast 530 610 32,200 -850 Descending New York Center
Sat 12:10:25 AM 41.8653 -76.3047 51° Northeast 530 610 31,300 -889 Descending New York Center
Sat 12:13:01 AM 42.0822 -75.9231 52° Northeast 534 615 29,000 -944 Descending Boston Center
Sat 12:14:01 AM 42.1900 -75.7328 53° Northeast 534 615 27,900 -1,050 Descending Boston Center
Sat 12:15:01 AM 42.2658 -75.5628 59° Northeast 534 615 26,900 -1,750 Descending Boston Center
Sat 12:16:01 AM 42.3142 -75.3828 70° East 520 598 24,400 -2,650 Descending Boston Center
Sat 12:17:01 AM 42.3644 -75.2081 69° East 507 583 21,600 -2,850 Descending Boston Center
Sat 12:18:01 AM 42.4056 -75.0581 70° East 490 564 18,700 -3,100 Descending Boston Center
Sat 12:19:01 AM 42.4489 -74.8994 70° East 463 533 15,400 -3,179 Descending Boston Center
Sat 12:19:58 AM 42.4939 -74.7350 70° East 424 488 12,500 -2,000 Descending Boston Center
Sat 12:21:13 AM 42.5322 -74.5928 70° East 420 483 11,000 -806 Descending Boston Center
Sat 12:22:12 AM 42.5433 -74.4436 84° East 307 353 10,700 -958 Descending Boston Center
Sat 12:23:12 AM 42.5453 -74.3311 89° East 286 329 9,100 -1,934 Descending Boston Center
Sat 12:24:13 AM 42.5489 -74.2269 87° East 277 319 6,800 -2,033 Descending Boston Center
Sat 12:25:13 AM 42.5503 -74.1339 89° East 272 313 5,000 -1,461 Descending Boston Center
Sat 12:26:08 AM 42.5539 -74.0381 87° East 251 289 4,000 -931 Descending Boston Center
Sat 12:27:09 AM 42.5528 -73.9564 91° East 205 236 3,200 -492 Descending Boston Center
Sat 12:28:10 AM 42.5558 -73.8803 87° East 198 228 3,000 -347 Descending Boston Center
Sat 12:29:10 AM 42.5608 -73.8128 84° East 179 206 2,500 -496 Descending Boston Center
Sat 12:30:11 AM 42.6089 -73.8025 North 177 204 2,000 -347 Descending Boston Center
Sat 12:31:11 AM 42.6589 -73.8036 359° North 175 201 1,800 -496 Descending Boston Center
Sat 12:32:12 AM 42.7006 -73.8075 356° North 153 176 1,000 -787 Descending Boston Center
Sat 12:36:00 AM 42.7333 -73.8000 255° West  Level FlightAware Approximate
Sat 12:43:00 AM 42.7491 -73.8020 255° West  Level Estimated

Login

Don't have an account? Register now (free) for customized features, flight alerts, and more!